Airfield :
LOGIN :

Register | Disclaimer

   EN    FR    IT 

 










Legend :    VFR   Marginal VFR   IFR   Intensive IFR   Very Intensive IFR
Visi :
Ceiling :
>= 8 km
>= 3000ft
5 to 8 km
1000 to 3000 ft
1500m to 5 km
500 to 1000 ft
800 to 1500m
200 to 500 ft
< 800m
< 200 ft
Symbols :   Thunderstorms  Fog  Heavy snow  Heavy precipitations  Wind > 20 kt
SIGMETs :     Misc.  Thunderstorms  Icing  Turbulence  Mountain Waves  Volcanic Ashes







- Airport Elevation : 18 ft
- IATA code : KDL


EEKA - Kardla

CURRENT METAR :
  • 230950Z 02006KT CAVOK 27/15 Q1012

EXPIRED METARs :
  • 230850Z 16005KT 9999 FEW043 27/14 Q1012
  • 230750Z 20005KT CAVOK 26/14 Q1012
  • 230650Z 17006KT CAVOK 24/15 Q1012

TAF TAF EEKA
Valid from the 23 at 04:00 until the 23 at 10:00 UTC


230300Z 2304/2310 18005KT CAVOK
PROB40
TEMPO 2304/2306 1200 BR BCFG BKN003
No reported NOTAMs for that airfield.



MET'MAP, your aeronautical weather chart ! - Copyright ORBIFLY December 2007 - Disclaimer

ORBIFLY MET'MAP TEAM :

Programming & Development : Alexandra Zaïnal
Concept & Development : Baudouin d'Aumeries
Co-Development & Prog : Marc-Olivier Méhu
Technical & hardware support : Manuel Goepfert

Contact : metmap@orbifly.com




SOURCES & CREDITS :

   NOAA